Time;durP1;ratioP1;P1;durP2;ratioP2;P2;SDS_P1;SDS_P2;PMS_P1;PMS_P2;Temp;Humidity;BMP_temperature;BMP_pressure;BME280_temperature;BME280_humidity;BME280_pressure;Samples;Min_cycle;Max_cycle;Signal;HPM_P1;HPM_P2
2022/05/10 00:00:35;;;;;;;11.80;8.97;;;22.90;47.80;;;;;;5061434;28;20200;-47
2022/05/10 00:03:04;;;;;;;10.13;9.37;;;23.00;47.80;;;;;;5051021;28;20495;-50
2022/05/10 00:05:39;;;;;;;10.50;9.70;;;23.00;47.40;;;;;;5051572;28;20257;-48
2022/05/10 00:08:10;;;;;;;10.57;9.77;;;22.90;47.80;;;;;;5060796;28;20452;-49
2022/05/10 00:10:37;;;;;;;11.20;10.20;;;22.60;48.30;;;;;;5055349;28;20443;-49
2022/05/10 00:13:03;;;;;;;10.63;9.83;;;22.40;48.70;;;;;;5058600;28;21166;-47
2022/05/10 00:15:28;;;;;;;11.43;10.30;;;22.30;48.90;;;;;;5055824;28;20486;-46
2022/05/10 00:17:54;;;;;;;10.67;9.83;;;22.30;49.10;;;;;;5053682;28;20508;-45
2022/05/10 00:20:23;;;;;;;10.13;9.33;;;22.00;49.90;;;;;;5053156;28;20200;-48
2022/05/10 00:22:49;;;;;;;10.37;9.47;;;22.10;50.00;;;;;;5063125;28;20199;-48
2022/05/10 00:25:20;;;;;;;11.43;10.33;;;22.10;49.90;;;;;;5064806;28;20446;-47
2022/05/10 00:27:46;;;;;;;11.30;10.40;;;22.20;49.50;;;;;;5058154;28;20204;-49
2022/05/10 00:30:12;;;;;;;11.23;10.33;;;22.20;49.10;;;;;;5062966;28;20443;-49
2022/05/10 00:32:40;;;;;;;11.17;10.17;;;22.20;49.00;;;;;;5054983;28;20201;-49
2022/05/10 00:35:11;;;;;;;10.60;9.60;;;22.20;49.10;;;;;;5057884;28;20494;-48
2022/05/10 00:37:37;;;;;;;11.57;10.67;;;22.10;49.30;;;;;;5055189;28;20981;-47
2022/05/10 00:40:03;;;;;;;10.90;10.10;;;22.10;49.40;;;;;;5057072;28;20446;-46
2022/05/10 00:42:37;;;;;;;10.90;8.80;;;22.10;49.40;;;;;;5055190;28;20653;-50
2022/05/10 00:45:12;;;;;;;11.43;10.30;;;22.10;49.40;;;;;;5051134;28;20449;-50
2022/05/10 00:47:41;;;;;;;11.60;10.80;;;22.10;49.50;;;;;;5055119;28;20451;-49
2022/05/10 00:50:31;;;;;;;11.23;10.33;;;22.10;49.40;;;;;;5063370;28;20522;-48
2022/05/10 00:53:21;;;;;;;10.70;9.90;;;22.10;49.40;;;;;;5067022;28;20457;-50
2022/05/10 00:56:02;;;;;;;12.93;9.33;;;22.10;49.30;;;;;;5059188;28;20528;-46
2022/05/10 00:58:36;;;;;;;10.90;9.90;;;22.00;49.40;;;;;;5063774;28;20477;-46
2022/05/10 01:01:03;;;;;;;10.83;10.03;;;22.10;49.30;;;;;;5057124;28;20474;-45
2022/05/10 01:04:08;;;;;;;11.60;10.47;;;22.00;49.40;;;;;;5055440;28;20446;-49
2022/05/10 01:06:43;;;;;;;10.47;9.53;;;22.10;49.20;;;;;;5064798;28;20442;-50
2022/05/10 01:09:33;;;;;;;11.40;10.40;;;22.00;49.30;;;;;;5056358;28;20430;-45
2022/05/10 01:12:28;;;;;;;11.07;10.17;;;21.80;49.30;;;;;;5059493;28;20434;-47
2022/05/10 01:15:01;;;;;;;10.43;9.57;;;21.70;50.10;;;;;;5057056;28;20497;-47
2022/05/10 01:17:26;;;;;;;10.27;9.50;;;21.50;50.20;;;;;;5059787;28;20454;-50
2022/05/10 01:19:52;;;;;;;11.17;10.33;;;21.50;50.30;;;;;;5055841;28;20437;-48
2022/05/10 01:22:46;;;;;;;10.97;10.07;;;21.60;50.20;;;;;;5063140;28;20196;-48
2022/05/10 01:25:48;;;;;;;11.17;10.07;;;21.60;50.10;;;;;;5068323;28;20216;-47
2022/05/10 01:28:39;;;;;;;11.30;10.20;;;21.40;50.30;;;;;;5059387;28;20461;-45
2022/05/10 01:31:31;;;;;;;11.23;10.13;;;21.30;50.70;;;;;;5057777;28;20447;-50
2022/05/10 01:34:03;;;;;;;12.23;11.23;;;21.30;50.60;;;;;;5055789;28;20815;-45
2022/05/10 01:36:46;;;;;;;11.87;10.87;;;20.90;51.50;;;;;;5054406;28;20948;-46
2022/05/10 01:39:42;;;;;;;12.17;11.17;;;20.80;51.70;;;;;;5059574;28;20458;-47
2022/05/10 01:42:19;;;;;;;11.70;10.80;;;20.90;51.80;;;;;;5066925;28;20491;-45
2022/05/10 01:44:54;;;;;;;11.60;10.60;;;20.90;51.80;;;;;;5057827;28;20450;-50
2022/05/10 01:47:25;;;;;;;11.40;10.50;;;20.90;51.70;;;;;;5059883;28;20532;-45
2022/05/10 01:50:03;;;;;;;12.10;11.10;;;20.90;51.70;;;;;;5065997;28;20453;-46
2022/05/10 01:52:49;;;;;;;11.87;10.83;;;21.00;51.70;;;;;;5069166;28;20434;-45
2022/05/10 01:55:28;;;;;;;11.23;10.13;;;21.00;51.80;;;;;;5069659;28;20815;-45
2022/05/10 01:57:59;;;;;;;12.80;11.60;;;21.00;51.50;;;;;;5063705;28;20450;-45
2022/05/10 02:00:27;;;;;;;12.77;11.53;;;20.90;51.50;;;;;;5066792;28;20480;-45
2022/05/10 02:03:05;;;;;;;12.93;11.63;;;20.70;51.70;;;;;;5052654;28;20904;-45
2022/05/10 02:05:34;;;;;;;12.20;11.20;;;20.50;52.70;;;;;;5064765;28;20457;-46
2022/05/10 02:08:17;;;;;;;12.70;11.50;;;20.30;52.80;;;;;;5054991;28;20851;-46
2022/05/10 02:10:49;;;;;;;12.77;11.50;;;20.40;52.70;;;;;;5062353;28;20528;-45
2022/05/10 02:13:21;;;;;;;11.93;11.03;;;20.10;53.30;;;;;;5069945;28;20456;-45
2022/05/10 02:15:56;;;;;;;12.20;11.13;;;20.00;53.40;;;;;;5059934;28;20477;-45
2022/05/10 02:18:41;;;;;;;12.67;11.43;;;19.90;53.30;;;;;;5067513;28;20433;-45
2022/05/10 02:21:26;;;;;;;12.27;11.27;;;20.00;53.60;;;;;;5071036;28;20450;-45
2022/05/10 02:24:03;;;;;;;12.17;11.20;;;19.80;53.90;;;;;;5069511;28;20461;-46
2022/05/10 02:26:35;;;;;;;13.43;12.23;;;19.80;53.90;;;;;;5055393;28;20453;-45
2022/05/10 02:29:17;;;;;;;11.90;10.77;;;20.00;53.50;;;;;;5061247;28;20430;-48
2022/05/10 02:34:38;;;;;;;11.73;10.83;;;19.80;53.70;;;;;;5063192;28;20543;-47
2022/05/10 02:37:04;;;;;;;13.90;12.70;;;19.90;53.30;;;;;;5064756;28;20459;-45
2022/05/10 02:39:30;;;;;;;12.97;11.87;;;20.00;53.10;;;;;;5060599;28;20442;-44
2022/05/10 02:41:58;;;;;;;12.73;11.73;;;19.90;53.30;;;;;;5057556;28;21654;-45
2022/05/10 02:44:23;;;;;;;15.00;13.37;;;19.90;53.40;;;;;;5060310;28;20926;-46
2022/05/10 02:46:49;;;;;;;13.33;12.23;;;19.80;53.60;;;;;;5058393;28;20472;-44
2022/05/10 02:49:14;;;;;;;13.33;12.03;;;19.60;53.50;;;;;;5060551;28;20211;-46
2022/05/10 02:51:40;;;;;;;13.47;12.03;;;19.60;54.10;;;;;;5053908;28;20193;-44
2022/05/10 02:54:06;;;;;;;12.80;11.80;;;19.70;53.70;;;;;;5063052;28;20199;-45
2022/05/10 02:56:32;;;;;;;11.93;10.73;;;19.70;53.50;;;;;;5058274;28;20267;-48
2022/05/10 02:59:09;;;;;;;13.13;12.03;;;19.80;53.20;;;;;;5061157;28;20192;-45
2022/05/10 03:01:51;;;;;;;12.67;11.70;;;19.80;53.30;;;;;;5054642;28;20477;-46
2022/05/10 03:04:17;;;;;;;12.40;11.40;;;19.90;53.30;;;;;;5059168;28;21094;-44
2022/05/10 03:06:46;;;;;;;12.97;11.87;;;19.90;53.10;;;;;;5063768;28;20445;-44
2022/05/10 03:09:13;;;;;;;11.73;10.73;;;19.80;53.30;;;;;;5061547;28;20449;-45
2022/05/10 03:11:39;;;;;;;11.93;10.93;;;19.70;53.60;;;;;;5065863;28;20435;-45
2022/05/10 03:14:08;;;;;;;13.90;12.60;;;19.70;53.50;;;;;;5061946;28;20793;-45
2022/05/10 03:16:35;;;;;;;12.30;11.33;;;19.70;53.70;;;;;;5056366;28;20847;-46
2022/05/10 03:19:00;;;;;;;12.57;11.40;;;19.70;53.50;;;;;;5049929;28;20459;-45
2022/05/10 03:21:26;;;;;;;13.07;11.93;;;19.60;53.60;;;;;;5064085;28;20500;-47
2022/05/10 03:23:52;;;;;;;14.00;12.80;;;19.60;53.70;;;;;;5056141;28;20207;-48
2022/05/10 03:26:25;;;;;;;13.07;11.73;;;19.50;53.40;;;;;;5049213;28;20927;-46
2022/05/10 03:28:52;;;;;;;12.13;10.83;;;19.50;53.40;;;;;;5061929;28;20445;-46
2022/05/10 03:31:18;;;;;;;12.87;11.63;;;19.50;53.80;;;;;;5057114;28;20447;-47
2022/05/10 03:33:44;;;;;;;12.87;11.77;;;19.40;53.70;;;;;;5051955;28;20500;-46
2022/05/10 03:36:10;;;;;;;12.97;11.90;;;19.50;53.60;;;;;;5063579;28;20577;-45
2022/05/10 03:38:36;;;;;;;12.77;11.57;;;19.40;54.10;;;;;;5067782;28;21156;-45
2022/05/10 03:41:02;;;;;;;13.17;12.03;;;19.30;54.40;;;;;;5061137;28;20231;-46
2022/05/10 03:43:28;;;;;;;11.83;10.83;;;19.20;54.50;;;;;;5059937;28;21366;-47
2022/05/10 03:45:54;;;;;;;14.27;12.87;;;19.20;54.40;;;;;;5070048;28;20472;-45
2022/05/10 03:48:20;;;;;;;13.43;12.33;;;19.30;54.40;;;;;;5055157;28;20188;-46
2022/05/10 03:50:46;;;;;;;13.23;12.20;;;19.30;54.20;;;;;;5061181;28;20785;-46
2022/05/10 03:53:11;;;;;;;13.80;12.60;;;19.20;54.30;;;;;;5052802;28;20478;-46
2022/05/10 03:55:37;;;;;;;13.53;12.33;;;19.00;54.50;;;;;;5051785;28;20232;-46
2022/05/10 03:58:04;;;;;;;13.23;11.87;;;19.00;55.00;;;;;;5062242;28;20250;-45
2022/05/10 04:00:31;;;;;;;12.73;11.60;;;19.00;54.90;;;;;;5055628;28;20624;-46
2022/05/10 04:02:57;;;;;;;13.50;12.30;;;19.00;54.80;;;;;;5054193;28;20851;-46
2022/05/10 04:05:25;;;;;;;13.40;12.30;;;18.90;55.40;;;;;;5053929;28;20442;-46
2022/05/10 04:07:50;;;;;;;13.03;11.93;;;18.90;55.40;;;;;;5059223;28;20449;-45
2022/05/10 04:10:17;;;;;;;13.03;11.93;;;19.00;55.10;;;;;;5060116;28;20478;-46
2022/05/10 04:12:43;;;;;;;13.20;12.10;;;19.00;55.00;;;;;;5052915;28;20199;-46
2022/05/10 04:15:12;;;;;;;12.93;11.80;;;19.00;55.00;;;;;;5050581;28;20493;-46
2022/05/10 04:17:37;;;;;;;13.47;12.27;;;18.70;55.40;;;;;;5053539;28;20192;-45
2022/05/10 04:20:06;;;;;;;13.03;11.83;;;18.70;55.60;;;;;;5059829;28;20445;-43
2022/05/10 04:22:32;;;;;;;13.30;11.70;;;18.70;55.60;;;;;;5058893;28;22431;-43
2022/05/10 04:24:58;;;;;;;13.20;12.20;;;18.80;55.40;;;;;;5054491;28;20453;-43
2022/05/10 04:27:24;;;;;;;13.20;12.20;;;18.90;55.10;;;;;;5059096;28;20910;-43
2022/05/10 04:29:50;;;;;;;14.20;12.80;;;18.90;55.00;;;;;;5055051;28;20202;-44
2022/05/10 04:32:15;;;;;;;14.90;12.00;;;18.90;55.20;;;;;;5055404;28;20196;-43
2022/05/10 04:34:41;;;;;;;13.80;11.63;;;18.90;55.20;;;;;;5064242;28;20277;-43
2022/05/10 04:37:07;;;;;;;13.27;12.13;;;18.80;55.40;;;;;;5062765;28;20196;-47
2022/05/10 04:42:17;;;;;;;12.80;11.80;;;18.60;56.30;;;;;;5061029;28;20581;-46
2022/05/10 04:44:42;;;;;;;13.30;12.10;;;18.50;56.40;;;;;;5060650;28;20454;-46
2022/05/10 04:47:08;;;;;;;13.23;11.87;;;18.50;56.70;;;;;;5067027;28;20547;-45
2022/05/10 04:49:34;;;;;;;12.90;11.90;;;18.60;56.50;;;;;;5063128;28;20232;-46
2022/05/10 04:51:59;;;;;;;13.10;11.90;;;18.60;56.40;;;;;;5058347;28;20188;-47
2022/05/10 04:54:25;;;;;;;13.67;12.37;;;18.70;56.70;;;;;;5057828;28;20274;-45
2022/05/10 04:56:50;;;;;;;14.20;13.00;;;18.90;56.10;;;;;;5054021;28;20197;-45
2022/05/10 04:59:16;;;;;;;14.80;13.37;;;19.10;55.70;;;;;;5059997;28;20604;-46
2022/05/10 05:01:41;;;;;;;13.93;12.37;;;19.10;55.60;;;;;;5064490;28;20231;-46
2022/05/10 05:04:07;;;;;;;12.93;11.77;;;19.10;55.60;;;;;;5061347;28;20200;-45
2022/05/10 05:06:35;;;;;;;13.00;12.00;;;19.10;55.70;;;;;;5051000;28;20200;-45
2022/05/10 05:09:00;;;;;;;12.17;11.17;;;19.30;55.70;;;;;;5061484;28;20214;-46
2022/05/10 05:11:26;;;;;;;15.90;11.67;;;19.20;55.80;;;;;;5064891;28;20929;-48
2022/05/10 05:13:53;;;;;;;13.07;11.80;;;19.20;57.00;;;;;;5063043;28;20195;-48
2022/05/10 05:16:18;;;;;;;14.47;12.97;;;19.60;56.00;;;;;;5053883;28;20278;-48
2022/05/10 05:18:45;;;;;;;12.60;11.40;;;19.90;54.80;;;;;;5065595;28;20434;-48
2022/05/10 05:21:11;;;;;;;11.70;10.80;;;20.10;54.20;;;;;;5056110;28;20215;-47
2022/05/10 05:23:37;;;;;;;11.83;10.83;;;20.10;54.10;;;;;;5054550;28;20473;-44
2022/05/10 05:26:03;;;;;;;12.20;11.10;;;20.10;53.90;;;;;;5051103;28;20639;-45
2022/05/10 05:28:29;;;;;;;13.80;11.83;;;20.30;53.80;;;;;;5059694;28;20196;-46
2022/05/10 05:30:55;;;;;;;12.33;11.23;;;20.30;53.60;;;;;;5070153;28;20445;-43
2022/05/10 05:33:21;;;;;;;12.80;11.70;;;20.40;53.40;;;;;;5052407;28;20447;-45
2022/05/10 05:35:46;;;;;;;12.73;11.63;;;20.60;53.00;;;;;;5065890;28;20523;-44
2022/05/10 05:38:12;;;;;;;11.97;10.77;;;20.50;53.60;;;;;;5065635;28;20693;-44
2022/05/10 05:40:38;;;;;;;12.73;11.53;;;20.40;53.90;;;;;;5066162;28;20204;-45
2022/05/10 05:43:04;;;;;;;11.50;10.40;;;20.60;53.70;;;;;;5057502;28;20196;-44
2022/05/10 05:45:30;;;;;;;11.23;10.33;;;20.80;53.10;;;;;;5062887;28;20471;-45
2022/05/10 05:47:56;;;;;;;11.23;10.33;;;21.10;52.60;;;;;;5067700;28;20941;-46
2022/05/10 05:50:24;;;;;;;12.13;11.10;;;21.20;52.60;;;;;;5064898;28;20375;-47
2022/05/10 05:52:52;;;;;;;13.20;11.97;;;21.30;52.40;;;;;;5071375;28;20195;-46
2022/05/10 05:55:18;;;;;;;13.03;11.97;;;21.50;52.10;;;;;;5068371;28;20864;-44
2022/05/10 05:57:44;;;;;;;12.57;11.57;;;21.70;52.00;;;;;;5070622;28;20464;-48
2022/05/10 06:00:14;;;;;;;11.33;10.43;;;21.60;52.20;;;;;;5064457;28;20847;-44
2022/05/10 06:02:40;;;;;;;12.03;11.07;;;21.60;52.20;;;;;;5062107;28;20251;-45
2022/05/10 06:05:07;;;;;;;11.03;10.03;;;21.30;52.90;;;;;;5058900;28;20893;-47
2022/05/10 06:07:33;;;;;;;11.93;10.73;;;21.40;52.90;;;;;;5060881;28;20521;-45
2022/05/10 06:09:58;;;;;;;11.40;10.37;;;21.30;52.90;;;;;;5052097;28;20439;-45
2022/05/10 06:12:25;;;;;;;10.90;10.10;;;21.50;52.80;;;;;;5061790;28;20481;-44
2022/05/10 06:14:51;;;;;;;11.40;10.40;;;21.80;52.20;;;;;;5065571;28;20238;-47
2022/05/10 06:17:17;;;;;;;13.23;12.03;;;21.90;52.60;;;;;;5064172;28;20450;-44
2022/05/10 06:19:45;;;;;;;13.20;12.20;;;21.70;52.40;;;;;;5059835;28;20537;-49
2022/05/10 06:22:11;;;;;;;12.20;11.10;;;21.70;52.50;;;;;;5065652;28;20434;-44
2022/05/10 06:24:38;;;;;;;12.70;11.50;;;21.80;52.50;;;;;;5053822;28;20447;-44
2022/05/10 06:27:05;;;;;;;13.50;12.40;;;21.80;52.60;;;;;;5065626;28;20534;-44
2022/05/10 06:29:33;;;;;;;12.83;11.70;;;21.60;52.90;;;;;;5066178;28;20446;-45
2022/05/10 06:31:58;;;;;;;12.97;11.87;;;21.50;53.40;;;;;;5058525;28;20990;-44
2022/05/10 06:34:24;;;;;;;11.27;10.23;;;21.60;53.50;;;;;;5067441;28;20470;-45
2022/05/10 06:36:49;;;;;;;11.90;10.80;;;21.80;53.20;;;;;;5060146;28;20238;-44
2022/05/10 06:39:15;;;;;;;11.80;10.70;;;21.90;52.80;;;;;;5061634;28;20674;-44
2022/05/10 06:41:40;;;;;;;12.80;11.60;;;22.10;52.50;;;;;;5061964;28;20211;-44
2022/05/10 06:44:07;;;;;;;11.60;10.60;;;22.30;52.20;;;;;;5063360;28;20219;-46
2022/05/10 06:46:34;;;;;;;12.40;11.50;;;22.30;52.00;;;;;;5060938;28;20258;-43
2022/05/10 06:49:01;;;;;;;12.67;11.53;;;22.50;52.00;;;;;;5064380;28;20443;-45
2022/05/10 06:51:28;;;;;;;11.87;10.80;;;22.70;51.90;;;;;;5057396;28;20454;-45
2022/05/10 06:53:55;;;;;;;12.70;11.50;;;22.60;51.50;;;;;;5062105;28;20491;-49
2022/05/10 06:56:21;;;;;;;11.90;10.90;;;22.60;51.70;;;;;;5067564;28;20489;-46
2022/05/10 06:58:47;;;;;;;12.17;11.17;;;22.60;51.50;;;;;;5065080;28;20445;-48
2022/05/10 07:01:13;;;;;;;11.90;11.00;;;22.70;51.30;;;;;;5068259;28;20876;-47
2022/05/10 07:03:42;;;;;;;12.27;11.17;;;22.80;51.70;;;;;;5064038;28;20210;-46
2022/05/10 07:06:10;;;;;;;10.80;9.90;;;22.70;51.10;;;;;;5064521;28;20447;-48
2022/05/10 07:08:36;;;;;;;11.43;10.37;;;23.00;50.90;;;;;;5059687;28;20454;-47
2022/05/10 07:11:02;;;;;;;11.57;10.57;;;23.20;49.80;;;;;;5065506;28;20439;-46
2022/05/10 07:13:30;;;;;;;10.97;10.17;;;23.20;50.10;;;;;;5067172;28;20257;-48
2022/05/10 07:15:56;;;;;;;13.17;10.90;;;23.00;50.90;;;;;;5057561;28;21231;-46
2022/05/10 07:18:22;;;;;;;10.60;9.73;;;23.00;50.70;;;;;;5055208;28;20450;-47
2022/05/10 07:20:48;;;;;;;10.90;9.80;;;23.40;50.00;;;;;;5054414;28;20456;-46
2022/05/10 07:23:18;;;;;;;10.93;9.83;;;23.90;49.10;;;;;;5064136;28;20670;-46
2022/05/10 07:25:44;;;;;;;10.57;9.60;;;24.10;48.50;;;;;;5058246;28;20442;-45
2022/05/10 07:28:09;;;;;;;11.73;10.70;;;24.50;48.60;;;;;;5064316;28;20439;-45
2022/05/10 07:30:38;;;;;;;11.37;10.37;;;24.70;48.20;;;;;;5059764;28;20271;-46
2022/05/10 07:33:04;;;;;;;11.80;10.70;;;24.70;47.30;;;;;;5061120;28;21461;-48
2022/05/10 07:38:16;;;;;;;9.20;8.40;;;24.60;47.70;;;;;;5065319;28;20507;-45
2022/05/10 07:40:45;;;;;;;10.90;10.00;;;24.50;48.70;;;;;;5049715;28;20196;-46
2022/05/10 07:43:12;;;;;;;10.53;9.50;;;24.80;48.30;;;;;;5054619;28;20530;-47
2022/05/10 07:45:40;;;;;;;10.73;9.73;;;24.90;47.80;;;;;;5054696;28;20455;-47
2022/05/10 07:48:06;;;;;;;10.90;9.90;;;25.00;47.60;;;;;;5058824;28;20438;-45
2022/05/10 07:50:32;;;;;;;11.53;10.17;;;25.00;47.40;;;;;;5058098;28;20928;-45
2022/05/10 07:53:00;;;;;;;11.73;10.57;;;25.10;47.50;;;;;;5061705;28;20449;-45
2022/05/10 07:55:26;;;;;;;11.33;10.23;;;25.00;47.40;;;;;;5057543;28;21580;-45
2022/05/10 07:57:51;;;;;;;10.93;9.93;;;24.90;47.30;;;;;;5059458;28;20532;-44
2022/05/10 08:00:17;;;;;;;10.60;9.57;;;25.00;47.50;;;;;;5054708;28;20245;-45
2022/05/10 08:02:44;;;;;;;9.90;9.07;;;25.30;47.50;;;;;;5056672;28;20494;-45
2022/05/10 08:05:19;;;;;;;9.20;8.50;;;25.70;46.70;;;;;;5051209;28;20193;-46
2022/05/10 08:07:44;;;;;;;10.70;9.83;;;25.90;46.30;;;;;;5057559;28;20479;-45
2022/05/10 08:10:10;;;;;;;10.47;9.50;;;25.80;45.70;;;;;;5058886;28;20477;-46
2022/05/10 08:12:36;;;;;;;8.83;8.03;;;25.80;45.90;;;;;;5059460;28;20896;-46
2022/05/10 08:15:04;;;;;;;11.80;10.20;;;26.10;45.80;;;;;;5057041;28;20490;-47
2022/05/10 08:17:30;;;;;;;9.30;8.50;;;25.90;45.20;;;;;;5057501;28;20443;-46
2022/05/10 08:19:56;;;;;;;10.07;9.17;;;25.90;45.80;;;;;;5048799;28;20959;-44
2022/05/10 08:22:22;;;;;;;9.60;8.70;;;26.20;45.80;;;;;;5057256;28;20588;-45
2022/05/10 08:24:47;;;;;;;9.47;8.70;;;26.20;44.70;;;;;;5059275;28;20322;-46
2022/05/10 08:27:13;;;;;;;9.27;8.67;;;26.20;45.10;;;;;;5060462;28;20267;-46
2022/05/10 08:29:39;;;;;;;9.13;8.33;;;26.10;45.50;;;;;;5059126;28;20188;-45
2022/05/10 08:32:04;;;;;;;9.00;8.20;;;26.40;44.30;;;;;;5057866;28;20218;-45
2022/05/10 08:34:32;;;;;;;9.40;8.50;;;26.90;43.80;;;;;;5059502;28;21682;-45
2022/05/10 08:36:58;;;;;;;8.97;8.17;;;27.00;43.00;;;;;;5064972;28;20203;-47
2022/05/10 08:39:24;;;;;;;11.53;8.20;;;27.30;43.00;;;;;;5060365;28;20856;-49
2022/05/10 08:41:54;;;;;;;9.20;8.30;;;27.30;42.90;;;;;;5056046;28;20198;-49
2022/05/10 08:44:24;;;;;;;9.03;8.37;;;27.50;42.70;;;;;;5053546;28;20612;-51
2022/05/10 08:46:58;;;;;;;8.70;7.90;;;27.80;41.80;;;;;;5058011;28;20785;-47
2022/05/10 08:49:32;;;;;;;10.67;7.53;;;28.00;41.40;;;;;;5057475;28;20521;-49
2022/05/10 08:51:58;;;;;;;8.40;7.80;;;28.20;41.00;;;;;;5060663;28;20870;-45
2022/05/10 08:54:25;;;;;;;8.43;7.70;;;28.20;41.00;;;;;;5054244;28;20530;-50
2022/05/10 08:56:58;;;;;;;7.47;6.87;;;28.30;40.40;;;;;;5054182;28;20192;-46
2022/05/10 08:59:26;;;;;;;8.57;6.80;;;28.50;40.30;;;;;;5057061;28;20439;-50
2022/05/10 09:01:57;;;;;;;7.23;6.53;;;28.70;40.00;;;;;;5064752;28;20506;-46
2022/05/10 09:04:42;;;;;;;6.97;6.47;;;28.90;38.60;;;;;;5050716;28;20522;-47
2022/05/10 09:07:36;;;;;;;7.90;7.13;;;28.90;37.60;;;;;;5062003;28;20449;-48
2022/05/10 09:10:19;;;;;;;8.00;7.20;;;29.00;37.70;;;;;;5065971;28;20506;-47
2022/05/10 09:13:05;;;;;;;6.97;6.47;;;29.20;37.80;;;;;;5055212;28;20450;-49
2022/05/10 09:15:37;;;;;;;6.83;6.30;;;29.30;37.10;;;;;;5053496;28;20521;-45
2022/05/10 09:18:20;;;;;;;7.60;6.90;;;29.40;36.60;;;;;;5066412;28;20524;-47
2022/05/10 09:21:26;;;;;;;7.63;7.13;;;29.40;36.30;;;;;;5064581;28;20499;-46
2022/05/10 09:24:29;;;;;;;8.27;7.60;;;29.40;37.00;;;;;;5044426;28;20944;-49
2022/05/10 09:27:04;;;;;;;7.73;6.67;;;29.60;37.50;;;;;;5053508;28;20482;-49
2022/05/10 09:30:00;;;;;;;7.40;6.90;;;29.70;35.40;;;;;;5056970;28;20460;-48
2022/05/10 09:35:22;;;;;;;7.27;6.60;;;29.80;35.90;;;;;;5067757;28;20496;-48
2022/05/10 09:37:48;;;;;;;6.80;6.10;;;30.00;35.60;;;;;;5066623;28;20492;-49
2022/05/10 09:40:42;;;;;;;7.70;7.00;;;30.00;35.20;;;;;;5060584;28;20532;-46
2022/05/10 09:43:15;;;;;;;6.90;6.30;;;29.80;34.50;;;;;;5059324;28;20196;-47
2022/05/10 09:45:41;;;;;;;6.60;6.10;;;30.00;34.40;;;;;;5054713;28;20447;-48
2022/05/10 09:48:07;;;;;;;6.00;5.50;;;30.10;34.20;;;;;;5058978;28;20457;-49
2022/05/10 09:50:44;;;;;;;6.53;6.03;;;30.50;33.40;;;;;;5056694;28;20450;-45
2022/05/10 09:53:15;;;;;;;6.07;5.67;;;30.50;32.10;;;;;;5072109;28;20223;-47
2022/05/10 09:55:52;;;;;;;6.63;6.20;;;30.70;33.00;;;;;;5055239;28;20486;-47
2022/05/10 09:58:22;;;;;;;6.63;5.87;;;31.10;33.00;;;;;;5060116;28;20787;-47
2022/05/10 10:00:52;;;;;;;6.20;5.80;;;31.30;32.30;;;;;;5063966;28;20496;-47
2022/05/10 10:03:32;;;;;;;5.97;5.57;;;31.50;31.30;;;;;;5060092;28;20439;-47
2022/05/10 10:06:17;;;;;;;6.73;6.07;;;31.50;30.70;;;;;;5059338;28;20467;-47
2022/05/10 10:08:46;;;;;;;5.80;5.40;;;31.20;30.20;;;;;;5061723;28;20442;-47
2022/05/10 10:11:32;;;;;;;5.90;5.40;;;31.30;31.60;;;;;;5062382;28;20954;-50
2022/05/10 10:13:59;;;;;;;6.03;5.43;;;31.30;31.30;;;;;;5060143;28;20923;-46
2022/05/10 10:16:50;;;;;;;6.70;6.20;;;31.70;29.70;;;;;;5055541;28;21213;-47
2022/05/10 10:19:18;;;;;;;5.40;5.00;;;31.80;29.60;;;;;;5060708;28;21025;-48
2022/05/10 10:21:54;;;;;;;7.70;5.47;;;31.90;30.10;;;;;;5058740;28;20446;-47
2022/05/10 10:24:52;;;;;;;6.00;5.40;;;32.10;30.50;;;;;;5059581;28;20816;-48
2022/05/10 10:27:22;;;;;;;6.00;5.60;;;32.50;29.10;;;;;;5085867;28;20459;-47
2022/05/10 10:30:02;;;;;;;6.93;6.20;;;32.70;29.00;;;;;;5061608;28;20441;-49
2022/05/10 10:32:40;;;;;;;6.80;6.20;;;32.80;29.10;;;;;;5057398;28;20437;-50
2022/05/10 10:35:17;;;;;;;5.70;5.30;;;32.70;29.00;;;;;;5063845;28;20536;-46
2022/05/10 10:37:57;;;;;;;5.33;4.93;;;32.70;28.60;;;;;;5061957;28;22215;-45
2022/05/10 10:40:27;;;;;;;5.57;5.17;;;32.80;28.70;;;;;;5059612;28;21010;-49
2022/05/10 10:43:25;;;;;;;4.53;4.20;;;32.90;28.20;;;;;;5066873;28;20454;-48
2022/05/10 10:45:57;;;;;;;4.53;4.23;;;32.70;27.20;;;;;;5034376;28;20912;-48
2022/05/10 10:48:32;;;;;;;4.90;4.60;;;33.00;26.80;;;;;;5062772;28;20839;-45
2022/05/10 10:50:58;;;;;;;5.73;5.20;;;33.20;27.20;;;;;;5059239;28;20457;-50
2022/05/10 10:53:26;;;;;;;5.63;5.00;;;33.40;27.90;;;;;;5062809;28;20427;-46
2022/05/10 10:55:59;;;;;;;5.47;5.13;;;33.20;27.20;;;;;;5050973;28;20504;-49
2022/05/10 10:59:03;;;;;;;5.80;5.37;;;33.20;28.70;;;;;;5064356;28;20772;-50
2022/05/10 11:02:05;;;;;;;5.53;4.40;;;33.40;27.40;;;;;;5060081;28;20467;-47
2022/05/10 11:04:59;;;;;;;5.73;5.23;;;33.60;27.00;;;;;;5063916;28;20479;-47
2022/05/10 11:08:01;;;;;;;5.03;4.60;;;33.50;27.00;;;;;;5057069;28;20462;-50
2022/05/10 11:10:42;;;;;;;5.17;4.80;;;33.50;27.20;;;;;;5066228;28;20465;-46
2022/05/10 11:13:33;;;;;;;5.13;4.73;;;33.50;26.40;;;;;;5051406;28;20455;-45
2022/05/10 11:16:36;;;;;;;5.50;5.10;;;33.60;26.80;;;;;;5055216;28;20581;-48
2022/05/10 11:19:31;;;;;;;7.33;5.40;;;33.70;26.40;;;;;;5054358;28;21213;-48
2022/05/10 11:22:28;;;;;;;4.80;4.50;;;33.90;26.40;;;;;;5065531;28;20545;-48
2022/05/10 11:25:22;;;;;;;5.03;4.63;;;34.20;26.30;;;;;;5053678;28;20884;-47
2022/05/10 11:28:06;;;;;;;4.63;4.23;;;34.20;26.00;;;;;;5060819;28;20538;-46
2022/05/10 11:30:51;;;;;;;5.10;4.60;;;34.40;25.70;;;;;;5056394;28;20439;-46
2022/05/10 11:33:31;;;;;;;4.20;4.00;;;34.50;25.60;;;;;;5066951;28;20477;-46
2022/05/10 11:36:32;;;;;;;4.77;4.43;;;34.40;25.30;;;;;;5065536;28;21008;-46
2022/05/10 11:39:35;;;;;;;4.90;4.60;;;34.50;25.80;;;;;;5062144;28;20487;-47
2022/05/10 11:42:32;;;;;;;4.50;4.20;;;34.60;25.40;;;;;;5060753;28;20450;-45
2022/05/10 11:45:23;;;;;;;4.77;4.37;;;34.70;25.80;;;;;;5065849;28;20957;-49
2022/05/10 11:48:17;;;;;;;7.03;4.80;;;34.80;25.60;;;;;;5059609;28;20482;-46
2022/05/10 11:54:04;;;;;;;5.90;4.93;;;34.80;24.30;;;;;;5060365;28;20823;-48
2022/05/10 11:56:34;;;;;;;5.73;4.60;;;34.80;24.20;;;;;;5064723;28;20824;-46
2022/05/10 11:59:12;;;;;;;4.97;4.60;;;34.80;24.30;;;;;;5060998;28;20569;-48
2022/05/10 12:01:47;;;;;;;4.37;4.07;;;34.90;23.80;;;;;;5069372;28;20484;-47
2022/05/10 12:04:33;;;;;;;4.10;3.80;;;34.90;23.40;;;;;;5056031;28;20459;-46
2022/05/10 12:07:20;;;;;;;5.70;5.20;;;34.80;24.10;;;;;;5059782;28;20858;-46
2022/05/10 12:10:26;;;;;;;5.53;4.73;;;35.00;24.30;;;;;;5070407;28;21204;-46
2022/05/10 12:12:52;;;;;;;5.00;4.60;;;35.20;24.00;;;;;;5057662;28;20443;-48
2022/05/10 12:21:21;;;;;;;5.10;4.57;;;35.10;24.00;;;;;;5056498;28;20457;-48
2022/05/10 12:24:11;;;;;;;4.73;4.43;;;35.10;24.30;;;;;;5053008;28;20450;-46
2022/05/10 12:26:50;;;;;;;4.40;4.10;;;35.00;23.90;;;;;;5060111;28;20455;-47
2022/05/10 12:29:36;;;;;;;5.03;4.73;;;35.00;24.00;;;;;;5057217;28;20532;-46
2022/05/10 12:32:34;;;;;;;4.53;4.23;;;35.10;23.50;;;;;;5063415;28;20450;-51
2022/05/10 12:35:04;;;;;;;5.03;4.73;;;35.20;24.30;;;;;;5054056;28;20482;-44
2022/05/10 12:37:30;;;;;;;4.63;4.23;;;35.40;24.30;;;;;;5060952;28;20929;-44
2022/05/10 12:40:08;;;;;;;5.83;5.00;;;35.40;23.90;;;;;;5049341;28;20502;-46
2022/05/10 12:42:55;;;;;;;5.77;5.47;;;35.30;24.10;;;;;;5061625;28;20460;-47
2022/05/10 12:45:54;;;;;;;5.40;5.00;;;35.20;24.20;;;;;;5063223;28;20561;-49
2022/05/10 12:48:44;;;;;;;4.93;4.63;;;34.90;24.80;;;;;;5059574;28;20455;-46
2022/05/10 12:51:31;;;;;;;5.30;5.00;;;34.80;24.80;;;;;;5059940;28;20552;-46
2022/05/10 12:54:02;;;;;;;5.53;5.00;;;34.60;24.90;;;;;;5050536;28;20511;-47
2022/05/10 12:56:46;;;;;;;5.70;5.30;;;34.50;24.80;;;;;;5058492;28;20555;-46
2022/05/10 12:59:34;;;;;;;5.60;5.03;;;34.50;24.80;;;;;;5060486;28;20445;-50
2022/05/10 13:02:03;;;;;;;5.07;4.77;;;34.50;24.70;;;;;;5049720;28;20985;-47
2022/05/10 13:04:41;;;;;;;5.43;5.13;;;34.40;24.80;;;;;;5059053;28;20442;-49
2022/05/10 13:07:44;;;;;;;5.53;5.13;;;34.40;25.00;;;;;;5063522;28;20430;-45
2022/05/10 13:10:16;;;;;;;4.80;4.50;;;34.40;25.40;;;;;;5050419;28;20462;-45
2022/05/10 13:12:46;;;;;;;7.63;5.20;;;34.60;26.10;;;;;;5052092;28;20454;-46
2022/05/10 13:15:23;;;;;;;4.57;4.37;;;34.70;25.40;;;;;;5060238;28;20478;-46
2022/05/10 13:17:54;;;;;;;5.30;4.80;;;34.80;25.10;;;;;;5058233;28;20437;-46
2022/05/10 13:20:27;;;;;;;4.90;4.60;;;34.60;24.50;;;;;;5052646;28;20495;-48
2022/05/10 13:23:00;;;;;;;5.33;4.87;;;34.60;24.30;;;;;;5064833;28;20521;-47
2022/05/10 13:25:40;;;;;;;4.43;4.17;;;34.50;24.50;;;;;;5062941;28;20518;-46